createdAt,value
2019-02-28T00:00:29.530Z,99.20
2019-02-28T00:02:57.946Z,99.20
2019-02-28T00:05:26.411Z,99.20
2019-02-28T00:07:54.813Z,99.00
2019-02-28T00:10:23.270Z,99.00
2019-02-28T00:12:51.675Z,99.00
2019-02-28T00:15:20.071Z,99.10
2019-02-28T00:17:48.518Z,99.10
2019-02-28T00:20:16.905Z,99.10
2019-02-28T00:22:48.357Z,99.20
2019-02-28T00:25:15.435Z,99.10
2019-02-28T00:27:43.842Z,99.20
2019-02-28T00:30:16.166Z,99.20
2019-02-28T00:32:44.585Z,99.30
2019-02-28T00:35:13.394Z,99.30
2019-02-28T00:37:42.458Z,99.40
2019-02-28T00:40:11.314Z,99.40
2019-02-28T00:42:39.714Z,99.50
2019-02-28T00:45:13.849Z,99.60
2019-02-28T00:47:42.271Z,99.60
2019-02-28T00:50:10.917Z,99.80
2019-02-28T00:52:39.303Z,99.80
2019-02-28T00:55:10.149Z,99.90
2019-02-28T00:57:38.555Z,99.90
2019-02-28T01:00:10.210Z,99.90
2019-02-28T01:02:38.674Z,99.90
2019-02-28T01:05:07.230Z,99.90
2019-02-28T01:07:35.622Z,99.90
2019-02-28T01:10:07.098Z,99.90
2019-02-28T01:12:35.506Z,99.90
2019-02-28T01:15:07.180Z,99.90
2019-02-28T01:17:36.035Z,99.90
2019-02-28T01:20:05.886Z,99.90
2019-02-28T01:22:34.310Z,99.90
2019-02-28T01:25:02.729Z,99.90
2019-02-28T01:27:31.118Z,99.90
2019-02-28T01:29:59.543Z,99.90
2019-02-28T01:32:28.031Z,99.90
2019-02-28T01:34:56.421Z,99.90
2019-02-28T01:37:24.842Z,99.90
2019-02-28T01:39:53.259Z,99.90
2019-02-28T01:42:21.655Z,99.90
2019-02-28T01:44:50.130Z,99.90
2019-02-28T01:47:19.982Z,99.90
2019-02-28T01:49:48.730Z,99.90
2019-02-28T01:52:17.204Z,99.90
2019-02-28T01:54:45.598Z,99.90
2019-02-28T01:57:14.279Z,99.90
2019-02-28T01:59:42.669Z,99.90
2019-02-28T02:02:11.073Z,99.90
2019-02-28T02:04:39.518Z,99.90
2019-02-28T02:07:07.966Z,99.90
2019-02-28T02:09:36.367Z,99.90
2019-02-28T02:12:04.848Z,99.90
2019-02-28T02:14:33.258Z,99.90
2019-02-28T02:17:01.951Z,99.90
2019-02-28T02:19:30.534Z,99.90
2019-02-28T02:21:58.930Z,99.90
2019-02-28T02:24:27.926Z,99.90
2019-02-28T02:26:57.331Z,99.90
2019-02-28T02:29:25.741Z,99.90
2019-02-28T02:31:54.199Z,99.90
2019-02-28T02:34:24.255Z,99.90
2019-02-28T02:36:54.294Z,99.90
2019-02-28T02:39:22.910Z,99.90
2019-02-28T02:41:51.320Z,99.90
2019-02-28T02:44:19.726Z,99.90
2019-02-28T02:46:48.149Z,99.90
2019-02-28T02:49:19.897Z,99.90
2019-02-28T02:51:50.337Z,99.90
2019-02-28T02:54:19.891Z,99.90
2019-02-28T02:56:46.951Z,99.90
2019-02-28T02:59:15.370Z,99.90
2019-02-28T03:01:43.788Z,99.90
2019-02-28T03:04:12.260Z,99.90
2019-02-28T03:06:40.659Z,99.90
2019-02-28T03:09:09.903Z,99.90
2019-02-28T03:11:39.198Z,99.90
2019-02-28T03:14:07.590Z,99.90
2019-02-28T03:16:36.232Z,99.90
2019-02-28T03:19:04.706Z,99.90
2019-02-28T03:21:33.134Z,99.90
2019-02-28T03:24:01.555Z,99.90
2019-02-28T03:26:29.939Z,99.90
2019-02-28T03:28:58.511Z,99.90
2019-02-28T03:31:26.940Z,99.90
2019-02-28T03:33:55.339Z,99.90
2019-02-28T03:36:23.727Z,99.90
2019-02-28T03:38:52.134Z,99.90
2019-02-28T03:41:20.539Z,99.90
2019-02-28T03:43:48.938Z,99.90
2019-02-28T03:46:17.375Z,99.90
2019-02-28T03:48:45.853Z,99.90
2019-02-28T03:51:14.261Z,99.90
2019-02-28T03:53:42.659Z,99.90
2019-02-28T03:56:14.321Z,99.90
2019-02-28T03:58:43.007Z,99.90
2019-02-28T04:01:11.811Z,99.90
2019-02-28T04:03:40.306Z,99.90
2019-02-28T04:06:08.690Z,99.90
2019-02-28T04:08:37.111Z,99.90
2019-02-28T04:11:05.507Z,99.90
2019-02-28T04:13:33.923Z,99.90
2019-02-28T04:16:09.163Z,99.90
2019-02-28T04:18:32.517Z,99.90
2019-02-28T04:21:00.915Z,99.90
2019-02-28T04:23:35.694Z,99.90
2019-02-28T04:25:59.443Z,99.90
2019-02-28T04:28:27.842Z,99.90
2019-02-28T04:30:56.254Z,99.90
2019-02-28T04:33:24.679Z,99.90
2019-02-28T04:35:53.063Z,99.90
2019-02-28T04:38:21.515Z,99.90
2019-02-28T04:40:49.943Z,99.90
2019-02-28T04:43:18.342Z,99.90
2019-02-28T04:45:46.758Z,99.90
2019-02-28T04:48:15.169Z,99.90
2019-02-28T04:50:43.832Z,99.90
2019-02-28T04:53:12.222Z,99.90
2019-02-28T04:55:40.622Z,99.90
2019-02-28T04:58:09.043Z,99.90
2019-02-28T05:00:38.076Z,99.90
2019-02-28T05:03:07.326Z,99.90
2019-02-28T05:05:35.731Z,99.90
2019-02-28T05:08:05.722Z,99.90
2019-02-28T05:10:34.447Z,99.90
2019-02-28T05:13:02.850Z,99.90
2019-02-28T05:15:31.243Z,99.90
2019-02-28T05:17:59.666Z,99.90
2019-02-28T05:20:28.070Z,99.90
2019-02-28T05:22:59.282Z,99.90
2019-02-28T05:25:26.866Z,99.90
2019-02-28T05:27:55.261Z,99.90
2019-02-28T05:30:23.755Z,99.90
2019-02-28T05:32:52.137Z,99.90
2019-02-28T05:35:25.477Z,99.90
2019-02-28T05:40:27.417Z,99.90
2019-02-28T05:42:58.396Z,99.90
2019-02-28T05:45:25.959Z,99.90
2019-02-28T05:47:54.395Z,99.90
2019-02-28T05:50:22.821Z,99.90
2019-02-28T05:52:51.246Z,99.90
2019-02-28T05:55:24.466Z,99.90
2019-02-28T05:57:49.758Z,99.90
2019-02-28T06:00:25.369Z,99.90
2019-02-28T06:02:58.034Z,99.90
2019-02-28T06:05:24.798Z,99.90
2019-02-28T06:07:53.203Z,99.90
2019-02-28T06:10:24.656Z,99.90
2019-02-28T06:12:51.723Z,99.90
2019-02-28T06:15:20.131Z,99.90
2019-02-28T06:17:48.535Z,99.90
2019-02-28T06:20:18.050Z,99.90
2019-02-28T06:22:46.541Z,99.90
2019-02-28T06:25:22.210Z,99.90
2019-02-28T06:27:49.129Z,99.90
2019-02-28T06:30:17.014Z,99.90
2019-02-28T06:32:45.402Z,99.90
2019-02-28T06:35:17.749Z,99.90
2019-02-28T06:37:44.246Z,99.90
2019-02-28T06:40:14.895Z,99.90
2019-02-28T06:42:43.464Z,99.90
2019-02-28T06:45:15.318Z,99.90
2019-02-28T06:47:48.032Z,99.90
2019-02-28T06:50:14.967Z,99.90
2019-02-28T06:52:43.370Z,99.90
2019-02-28T06:55:13.445Z,99.90
2019-02-28T06:57:41.908Z,99.90
2019-02-28T07:00:16.738Z,99.90
2019-02-28T07:02:45.148Z,99.90
2019-02-28T07:05:13.710Z,99.90
2019-02-28T07:07:42.115Z,99.90
2019-02-28T07:10:15.319Z,99.90
2019-02-28T07:12:43.732Z,99.90
2019-02-28T07:15:13.318Z,99.90
2019-02-28T07:17:42.690Z,99.90
2019-02-28T07:20:16.459Z,99.90
2019-02-28T07:22:44.853Z,99.90
2019-02-28T07:25:13.876Z,99.90
2019-02-28T07:27:42.478Z,99.90
2019-02-28T07:30:19.303Z,99.90
2019-02-28T07:32:47.960Z,99.90
2019-02-28T07:35:16.566Z,99.90
2019-02-28T07:37:44.950Z,99.90
2019-02-28T07:40:16.255Z,99.90
2019-02-28T07:42:44.735Z,99.90
2019-02-28T07:45:14.286Z,99.90
2019-02-28T07:47:42.763Z,99.90
2019-02-28T07:50:12.905Z,99.90
2019-02-28T07:52:41.562Z,99.90
2019-02-28T07:55:34.005Z,99.90
2019-02-28T07:58:02.411Z,99.90
2019-02-28T08:00:30.814Z,99.90
2019-02-28T08:02:59.226Z,99.90
2019-02-28T08:05:46.958Z,99.90
2019-02-28T08:08:15.377Z,99.90
2019-02-28T08:10:43.847Z,99.90
2019-02-28T08:13:12.242Z,99.90
2019-02-28T08:15:40.649Z,99.90
2019-02-28T08:18:09.534Z,99.90
2019-02-28T08:20:38.170Z,99.90
2019-02-28T08:23:06.595Z,99.90
2019-02-28T08:25:34.987Z,99.90
2019-02-28T08:28:03.535Z,99.90
2019-02-28T08:30:33.938Z,99.90
2019-02-28T08:33:02.511Z,99.90
2019-02-28T08:35:34.868Z,99.90
2019-02-28T08:38:01.043Z,99.70
2019-02-28T08:40:29.485Z,99.50
2019-02-28T08:42:57.881Z,99.20
2019-02-28T08:45:26.296Z,99.10
2019-02-28T08:47:56.639Z,98.90
2019-02-28T08:50:27.980Z,98.70
2019-02-28T08:53:06.538Z,98.50
2019-02-28T08:55:38.478Z,98.10
2019-02-28T08:58:06.687Z,98.00
2019-02-28T09:00:37.528Z,97.80
2019-02-28T09:03:05.536Z,97.40
2019-02-28T09:05:34.012Z,97.10
2019-02-28T09:08:02.462Z,96.50
2019-02-28T09:10:30.954Z,95.90
2019-02-28T09:12:59.526Z,95.30
2019-02-28T09:15:31.030Z,94.80
2019-02-28T09:17:59.351Z,94.20
2019-02-28T09:20:28.138Z,93.70
2019-02-28T09:23:01.525Z,93.30
2019-02-28T09:25:27.109Z,93.30
2019-02-28T09:27:55.778Z,92.50
2019-02-28T09:30:36.232Z,91.50
2019-02-28T09:33:05.019Z,90.40
2019-02-28T09:35:33.410Z,89.90
2019-02-28T09:38:06.272Z,88.10
2019-02-28T09:40:32.202Z,86.70
2019-02-28T09:43:00.604Z,84.10
2019-02-28T09:45:30.750Z,83.10
2019-02-28T09:48:01.899Z,81.70
2019-02-28T09:50:29.360Z,80.90
2019-02-28T09:52:57.794Z,80.00
2019-02-28T09:55:26.189Z,79.00
2019-02-28T09:57:55.112Z,79.00
2019-02-28T10:00:27.524Z,78.80
2019-02-28T10:02:55.755Z,78.60
2019-02-28T10:05:24.191Z,78.20
2019-02-28T10:07:52.764Z,78.40
2019-02-28T10:10:28.826Z,78.20
2019-02-28T10:12:57.300Z,77.70
2019-02-28T10:15:26.061Z,77.20
2019-02-28T10:17:54.455Z,76.70
2019-02-28T10:20:30.296Z,76.30
2019-02-28T10:22:58.710Z,75.90
2019-02-28T10:25:27.110Z,75.10
2019-02-28T10:28:01.404Z,74.50
2019-02-28T10:30:31.575Z,74.00
2019-02-28T10:32:56.936Z,72.00
2019-02-28T10:35:25.334Z,71.00
2019-02-28T10:37:57.093Z,70.30
2019-02-28T10:40:27.724Z,70.00
2019-02-28T10:42:56.278Z,69.30
2019-02-28T10:45:25.621Z,68.50
2019-02-28T10:47:54.175Z,68.40
2019-02-28T10:50:32.107Z,68.30
2019-02-28T10:52:58.137Z,67.70
2019-02-28T10:55:26.869Z,67.20
2019-02-28T10:57:55.451Z,66.40
2019-02-28T11:00:36.042Z,66.10
2019-02-28T11:03:04.439Z,65.40
2019-02-28T11:05:57.607Z,64.30
2019-02-28T11:08:26.078Z,64.00
2019-02-28T11:10:54.590Z,63.00
2019-02-28T11:13:23.150Z,62.70
2019-02-28T11:15:51.726Z,62.20
2019-02-28T11:18:20.317Z,61.80
2019-02-28T11:20:48.788Z,62.60
2019-02-28T11:23:17.735Z,62.70
2019-02-28T11:25:46.498Z,62.90
2019-02-28T11:28:15.611Z,64.40
2019-02-28T11:30:45.917Z,64.70
2019-02-28T11:33:15.664Z,63.30
2019-02-28T11:35:44.310Z,62.00
2019-02-28T11:38:12.782Z,60.70
2019-02-28T11:40:43.806Z,59.90
2019-02-28T11:43:11.496Z,59.50
2019-02-28T11:45:43.537Z,59.20
2019-02-28T11:48:18.743Z,58.80
2019-02-28T11:50:45.125Z,58.70
2019-02-28T11:53:13.986Z,57.90
2019-02-28T11:55:42.533Z,56.60
2019-02-28T11:58:16.645Z,55.60
2019-02-28T12:00:41.238Z,54.80
2019-02-28T12:03:09.698Z,53.70
2019-02-28T12:05:38.162Z,52.90
2019-02-28T12:08:10.441Z,52.30
2019-02-28T12:10:36.955Z,52.40
2019-02-28T12:13:05.422Z,51.90
2019-02-28T12:15:39.350Z,52.00
2019-02-28T12:18:07.827Z,52.50
2019-02-28T12:20:36.218Z,51.80
2019-02-28T12:23:04.802Z,51.50
2019-02-28T12:25:33.268Z,50.40
2019-02-28T12:28:02.706Z,49.60
2019-02-28T12:30:34.068Z,49.60
2019-02-28T12:33:02.472Z,48.50
2019-02-28T12:35:37.520Z,48.60
2019-02-28T12:38:01.278Z,48.70
2019-02-28T12:40:32.774Z,48.90
2019-02-28T12:43:01.532Z,48.90
2019-02-28T12:45:32.899Z,49.40
2019-02-28T12:48:01.523Z,49.50
2019-02-28T12:50:30.376Z,49.20
2019-02-28T12:52:59.174Z,49.00
2019-02-28T12:55:27.584Z,49.50
2019-02-28T12:57:57.764Z,49.80
2019-02-28T13:00:35.030Z,50.20
2019-02-28T13:03:03.514Z,50.90
2019-02-28T13:05:31.979Z,51.60
2019-02-28T13:08:00.471Z,52.00
2019-02-28T13:10:31.049Z,52.40
2019-02-28T13:13:06.311Z,53.10
2019-02-28T13:15:29.367Z,53.00
2019-02-28T13:17:57.838Z,52.70
2019-02-28T13:20:33.714Z,52.40
2019-02-28T13:23:01.623Z,52.40
2019-02-28T13:25:30.014Z,51.80
2019-02-28T13:27:58.494Z,51.80
2019-02-28T13:30:27.955Z,52.00
2019-02-28T13:32:56.966Z,52.30
2019-02-28T13:35:33.644Z,52.20
2019-02-28T13:38:02.050Z,52.10
2019-02-28T13:40:30.461Z,51.90
2019-02-28T13:42:58.862Z,51.90
2019-02-28T13:45:28.030Z,52.00
2019-02-28T13:47:56.521Z,51.90
2019-02-28T13:50:35.871Z,51.90
2019-02-28T13:53:17.257Z,52.00
2019-02-28T13:55:35.886Z,52.20
2019-02-28T13:58:04.675Z,51.70
2019-02-28T14:00:35.486Z,51.30
2019-02-28T14:03:11.710Z,51.30
2019-02-28T14:05:41.492Z,51.10
2019-02-28T14:08:12.023Z,51.40
2019-02-28T14:10:40.403Z,51.20
2019-02-28T14:13:09.072Z,51.10
2019-02-28T14:15:42.987Z,51.20
2019-02-28T14:18:12.042Z,51.30
2019-02-28T14:20:40.446Z,51.30
2019-02-28T14:23:09.218Z,51.30
2019-02-28T14:25:39.814Z,51.40
2019-02-28T14:28:07.850Z,51.10
2019-02-28T14:30:36.258Z,50.60
2019-02-28T14:33:05.007Z,50.40
2019-02-28T14:35:35.479Z,50.50
2019-02-28T14:38:03.596Z,50.60
2019-02-28T14:40:32.019Z,50.50
2019-02-28T14:43:00.424Z,50.50
2019-02-28T14:45:42.943Z,50.90
2019-02-28T14:48:10.656Z,50.60
2019-02-28T14:50:39.162Z,50.80
2019-02-28T14:53:13.328Z,50.90
2019-02-28T14:55:38.023Z,51.00
2019-02-28T14:58:06.420Z,51.10
2019-02-28T15:00:35.556Z,51.30
2019-02-28T15:03:04.200Z,51.40
2019-02-28T15:05:41.346Z,51.50
2019-02-28T15:08:11.781Z,51.40
2019-02-28T15:10:40.735Z,51.40
2019-02-28T15:13:09.318Z,51.00
2019-02-28T15:15:37.856Z,50.60
2019-02-28T15:18:06.262Z,50.20
2019-02-28T15:20:34.752Z,50.00
2019-02-28T15:23:03.151Z,51.40
2019-02-28T15:25:31.649Z,52.70
2019-02-28T15:28:00.132Z,53.20
2019-02-28T15:30:36.674Z,53.80
2019-02-28T15:33:05.067Z,54.40
2019-02-28T15:35:33.487Z,54.90
2019-02-28T15:38:01.941Z,55.40
2019-02-28T15:40:33.006Z,55.40
2019-02-28T15:43:01.470Z,55.30
2019-02-28T15:45:29.951Z,55.30
2019-02-28T15:47:58.802Z,55.10
2019-02-28T15:50:28.786Z,55.40
2019-02-28T15:52:57.774Z,55.50
2019-02-28T15:55:26.826Z,56.00
2019-02-28T15:57:55.238Z,55.70
2019-02-28T16:00:31.485Z,56.50
2019-02-28T16:03:00.176Z,57.40
2019-02-28T16:05:31.401Z,58.20
2019-02-28T16:07:59.853Z,58.80
2019-02-28T16:10:32.981Z,59.30
2019-02-28T16:13:01.532Z,59.80
2019-02-28T16:15:30.047Z,60.50
2019-02-28T16:17:58.629Z,61.10
2019-02-28T16:20:28.690Z,61.30
2019-02-28T16:22:57.711Z,61.60
2019-02-28T16:25:36.927Z,61.80
2019-02-28T16:28:08.476Z,62.10
2019-02-28T16:30:38.455Z,62.20
2019-02-28T16:33:07.246Z,62.20
2019-02-28T16:35:35.712Z,61.90
2019-02-28T16:38:06.559Z,61.90
2019-02-28T16:40:34.310Z,62.00
2019-02-28T16:43:02.727Z,62.50
2019-02-28T16:45:47.847Z,63.20
2019-02-28T16:48:16.270Z,63.60
2019-02-28T16:50:44.674Z,63.50
2019-02-28T16:53:16.191Z,63.50
2019-02-28T16:55:43.408Z,63.30
2019-02-28T16:58:11.900Z,62.80
2019-02-28T17:00:42.635Z,62.30
2019-02-28T17:03:10.623Z,62.20
2019-02-28T17:05:39.010Z,62.30
2019-02-28T17:08:07.866Z,62.40
2019-02-28T17:10:40.081Z,62.30
2019-02-28T17:13:28.690Z,62.30
2019-02-28T17:16:02.470Z,62.40
2019-02-28T17:18:32.817Z,62.30
2019-02-28T17:21:01.230Z,62.50
2019-02-28T17:23:29.627Z,62.80
2019-02-28T17:25:58.101Z,63.40
2019-02-28T17:28:46.596Z,64.00
2019-02-28T17:31:18.699Z,64.60
2019-02-28T17:33:47.953Z,65.20
2019-02-28T17:36:16.450Z,65.90
2019-02-28T17:38:44.871Z,66.50
2019-02-28T17:41:13.286Z,67.20
2019-02-28T17:43:43.429Z,68.80
2019-02-28T17:46:14.899Z,71.50
2019-02-28T17:48:55.380Z,74.10
2019-02-28T17:51:29.862Z,76.20
2019-02-28T17:54:04.282Z,77.50
2019-02-28T17:57:10.754Z,78.40
2019-02-28T17:59:59.658Z,80.00
2019-02-28T18:02:47.512Z,82.10
2019-02-28T18:05:38.711Z,83.80
2019-02-28T18:08:19.289Z,84.80
2019-02-28T18:11:08.703Z,86.00
2019-02-28T18:13:56.591Z,86.60
2019-02-28T18:16:44.574Z,87.60
2019-02-28T18:19:33.585Z,88.10
2019-02-28T18:22:16.146Z,88.30
2019-02-28T18:25:01.396Z,88.70
2019-02-28T18:28:01.275Z,87.50
2019-02-28T18:30:50.817Z,86.40
2019-02-28T18:33:19.621Z,85.50
2019-02-28T18:35:48.218Z,85.00
2019-02-28T18:38:16.623Z,84.00
2019-02-28T18:40:45.028Z,83.30
2019-02-28T18:43:13.534Z,82.80
2019-02-28T18:45:41.933Z,82.70
2019-02-28T18:48:11.404Z,82.30
2019-02-28T18:50:59.231Z,82.20
2019-02-28T18:53:27.883Z,82.10
2019-02-28T18:55:56.297Z,82.50
2019-02-28T18:58:24.760Z,82.60
2019-02-28T19:00:53.287Z,82.90
2019-02-28T19:03:21.686Z,83.10
2019-02-28T19:05:50.135Z,83.20
2019-02-28T19:08:18.615Z,83.30
2019-02-28T19:10:47.085Z,83.40
2019-02-28T19:13:15.486Z,83.50
2019-02-28T19:15:45.214Z,83.60
2019-02-28T19:18:13.886Z,83.70
2019-02-28T19:20:42.354Z,84.00
2019-02-28T19:23:10.827Z,84.20
2019-02-28T19:25:39.531Z,84.60
2019-02-28T19:28:07.921Z,84.90
2019-02-28T19:30:36.566Z,85.10
2019-02-28T19:33:05.262Z,85.30
2019-02-28T19:35:37.263Z,85.70
2019-02-28T19:38:05.644Z,86.00
2019-02-28T19:40:34.053Z,86.30
2019-02-28T19:43:02.451Z,86.60
2019-02-28T19:45:37.015Z,87.00
2019-02-28T19:48:05.478Z,87.30
2019-02-28T19:50:33.871Z,87.30
2019-02-28T19:53:02.288Z,87.60
2019-02-28T19:55:30.734Z,88.10
2019-02-28T19:57:59.187Z,88.40
2019-02-28T20:00:27.594Z,88.70
2019-02-28T20:02:56.084Z,89.20
2019-02-28T20:05:24.745Z,89.70
2019-02-28T20:07:53.162Z,90.00
2019-02-28T20:10:22.098Z,90.20
2019-02-28T20:12:50.486Z,90.50
2019-02-28T20:15:22.243Z,90.80
2019-02-28T20:17:50.627Z,91.20
2019-02-28T20:20:24.302Z,91.30
2019-02-28T20:22:52.706Z,91.40
2019-02-28T20:25:21.148Z,91.40
2019-02-28T20:27:49.538Z,91.20
2019-02-28T20:30:19.538Z,90.90
2019-02-28T20:32:47.950Z,90.60
2019-02-28T20:35:25.925Z,90.20
2019-02-28T20:37:46.706Z,90.00
2019-02-28T20:40:18.139Z,89.80
2019-02-28T20:42:46.538Z,89.60
2019-02-28T20:45:14.961Z,89.40
2019-02-28T20:47:43.454Z,88.90
2019-02-28T20:50:18.294Z,88.60
2019-02-28T20:52:46.703Z,88.20
2019-02-28T20:55:15.226Z,87.80
2019-02-28T20:57:43.635Z,87.60
2019-02-28T21:00:15.622Z,87.40
2019-02-28T21:02:44.105Z,87.10
2019-02-28T21:05:12.511Z,87.00
2019-02-28T21:07:40.941Z,86.90
2019-02-28T21:10:10.322Z,86.90
2019-02-28T21:12:38.885Z,87.00
2019-02-28T21:15:10.035Z,87.00
2019-02-28T21:17:38.539Z,87.10
2019-02-28T21:20:14.755Z,87.30
2019-02-28T21:22:43.202Z,87.50
2019-02-28T21:25:18.767Z,87.60
2019-02-28T21:27:47.214Z,87.80
2019-02-28T21:30:21.278Z,88.10
2019-02-28T21:32:49.751Z,88.30
2019-02-28T21:35:18.498Z,88.40
2019-02-28T21:37:48.021Z,88.70
2019-02-28T21:40:18.348Z,88.90
2019-02-28T21:42:46.746Z,89.20
2019-02-28T21:45:24.326Z,89.30
2019-02-28T21:47:52.744Z,89.60
2019-02-28T21:50:21.239Z,90.00
2019-02-28T21:52:49.846Z,90.10
2019-02-28T21:55:18.622Z,90.10
2019-02-28T21:57:47.029Z,90.10
2019-02-28T22:00:24.258Z,90.20
2019-02-28T22:02:52.675Z,90.30
2019-02-28T22:05:24.386Z,90.60
2019-02-28T22:07:52.966Z,90.10
2019-02-28T22:10:21.375Z,90.20
2019-02-28T22:12:49.861Z,90.20
2019-02-28T22:15:25.683Z,90.20
2019-02-28T22:17:54.233Z,90.20
2019-02-28T22:20:23.070Z,90.20
2019-02-28T22:22:51.628Z,90.30
2019-02-28T22:25:20.078Z,90.40
2019-02-28T22:27:48.548Z,90.40
2019-02-28T22:30:33.224Z,90.50
2019-02-28T22:33:06.363Z,90.60
2019-02-28T22:35:39.142Z,90.60
2019-02-28T22:38:07.607Z,90.60
2019-02-28T22:40:36.002Z,90.70
2019-02-28T22:43:04.427Z,91.00
2019-02-28T22:45:32.815Z,91.10
2019-02-28T22:48:01.246Z,91.20
2019-02-28T22:50:29.728Z,91.40
2019-02-28T22:52:58.132Z,91.70
2019-02-28T22:55:26.555Z,91.80
2019-02-28T22:57:54.987Z,91.90
2019-02-28T23:00:56.354Z,92.00
2019-02-28T23:03:25.090Z,92.00
2019-02-28T23:05:53.806Z,92.30
2019-02-28T23:08:22.206Z,92.50
2019-02-28T23:10:50.657Z,92.60
2019-02-28T23:13:19.502Z,92.90
2019-02-28T23:15:47.903Z,93.30
2019-02-28T23:18:16.309Z,93.70
2019-02-28T23:20:44.816Z,93.80
2019-02-28T23:23:13.471Z,94.00
2019-02-28T23:25:41.862Z,94.40
2019-02-28T23:28:16.254Z,94.70
2019-02-28T23:31:18.995Z,95.10
2019-02-28T23:33:47.711Z,95.30
2019-02-28T23:36:16.129Z,95.60
2019-02-28T23:38:44.514Z,95.80
2019-02-28T23:41:12.910Z,95.80
2019-02-28T23:43:41.314Z,96.10
2019-02-28T23:46:09.706Z,96.50
2019-02-28T23:48:38.109Z,97.10
2019-02-28T23:51:06.522Z,97.60
2019-02-28T23:53:34.909Z,98.10
2019-02-28T23:56:03.559Z,98.70
2019-02-28T23:58:31.966Z,99.10
